Time;durP1;ratioP1;P1;durP2;ratioP2;P2;SDS_P1;SDS_P2;PMS_P1;PMS_P2;Temp;Humidity;BMP_temperature;BMP_pressure;BME280_temperature;BME280_humidity;BME280_pressure;Samples;Min_cycle;Max_cycle;Signal;HPM_P1;HPM_P2
2023/07/18 00:01:58;;;;;;;2.10;1.20;;;15.40;99.90;;;;;;4141855;28;20211;-71
2023/07/18 00:04:00;;;;;;;5.30;1.80;;;15.40;99.90;;;;;;4141549;28;20222;-71
2023/07/18 00:06:02;;;;;;;9.37;3.57;;;15.40;99.90;;;;;;4137292;28;20243;-72
2023/07/18 00:08:04;;;;;;;10.93;4.30;;;15.40;99.90;;;;;;4140447;28;20318;-72
2023/07/18 00:10:06;;;;;;;10.83;2.97;;;15.40;99.90;;;;;;4142650;28;20263;-73
2023/07/18 00:12:09;;;;;;;3.47;1.80;;;15.40;99.90;;;;;;4138580;28;20305;-73
2023/07/18 00:14:12;;;;;;;2.17;1.20;;;15.50;99.90;;;;;;4139807;28;20214;-73
2023/07/18 00:16:14;;;;;;;4.63;1.50;;;15.50;99.90;;;;;;4140680;28;20207;-72
2023/07/18 00:18:16;;;;;;;4.13;1.60;;;15.40;99.90;;;;;;4140640;28;20299;-72
2023/07/18 00:20:18;;;;;;;2.90;1.40;;;15.40;99.90;;;;;;4139545;28;20228;-73
2023/07/18 00:22:20;;;;;;;4.40;1.37;;;15.30;99.90;;;;;;4140684;28;20230;-73
2023/07/18 00:24:21;;;;;;;4.03;1.20;;;15.40;99.90;;;;;;4142003;28;20665;-73
2023/07/18 00:26:24;;;;;;;2.27;1.10;;;15.40;99.90;;;;;;4141944;28;20258;-73
2023/07/18 00:28:26;;;;;;;2.47;1.30;;;15.30;99.90;;;;;;4138420;28;20214;-72
2023/07/18 00:30:29;;;;;;;2.97;1.20;;;15.30;99.90;;;;;;4141854;28;20255;-73
2023/07/18 00:32:30;;;;;;;2.67;1.37;;;15.30;99.90;;;;;;4139162;28;20326;-72
2023/07/18 00:34:32;;;;;;;3.90;1.20;;;15.30;99.90;;;;;;4141414;28;20211;-73
2023/07/18 00:36:34;;;;;;;2.80;1.27;;;15.30;99.90;;;;;;4138298;28;20713;-73
2023/07/18 00:38:36;;;;;;;4.23;1.30;;;15.20;99.90;;;;;;4140649;28;20248;-73
2023/07/18 00:40:40;;;;;;;1.40;1.00;;;15.20;99.90;;;;;;4142685;28;20315;-72
2023/07/18 00:42:45;;;;;;;1.70;1.20;;;15.20;99.90;;;;;;4140344;28;20277;-73
2023/07/18 00:44:48;;;;;;;2.03;1.23;;;15.10;99.90;;;;;;4140091;28;20303;-72
2023/07/18 00:46:52;;;;;;;2.27;1.40;;;15.10;99.90;;;;;;4139405;28;20578;-73
2023/07/18 00:48:54;;;;;;;1.93;1.30;;;15.10;99.90;;;;;;4143070;28;20653;-72
2023/07/18 00:50:56;;;;;;;2.97;1.33;;;15.10;99.90;;;;;;4138258;28;20295;-73
2023/07/18 00:52:58;;;;;;;3.60;1.33;;;15.10;99.90;;;;;;4142394;28;20214;-73
2023/07/18 00:55:00;;;;;;;2.73;1.30;;;15.10;99.90;;;;;;4140049;28;20598;-73
2023/07/18 00:57:02;;;;;;;2.60;1.10;;;15.00;99.90;;;;;;4139631;28;20243;-73
2023/07/18 00:59:05;;;;;;;2.20;1.03;;;15.00;99.90;;;;;;4141024;28;20582;-73
2023/07/18 01:01:07;;;;;;;2.40;1.13;;;15.00;99.90;;;;;;4139960;28;20213;-73
2023/07/18 01:03:10;;;;;;;1.67;1.13;;;14.90;99.90;;;;;;4137836;28;20220;-73
2023/07/18 01:05:16;;;;;;;1.73;1.13;;;15.00;99.90;;;;;;4137966;28;20214;-73
2023/07/18 01:07:20;;;;;;;1.93;1.20;;;15.00;99.90;;;;;;4140224;28;20219;-74
2023/07/18 01:09:22;;;;;;;3.13;1.33;;;14.90;99.90;;;;;;4140964;28;20217;-72
2023/07/18 01:11:24;;;;;;;2.40;1.30;;;14.90;99.90;;;;;;4141341;28;20323;-73
2023/07/18 01:13:24;;;;;;;2.00;1.20;;;14.80;99.90;;;;;;4136984;28;20300;-72
2023/07/18 01:15:30;;;;;;;3.77;1.33;;;14.80;99.90;;;;;;4140062;28;20764;-73
2023/07/18 01:17:31;;;;;;;2.57;1.20;;;14.70;99.90;;;;;;4140009;28;20246;-73
2023/07/18 01:19:35;;;;;;;1.93;1.30;;;14.70;99.90;;;;;;4137714;28;20235;-73
2023/07/18 01:21:38;;;;;;;2.63;1.10;;;14.60;99.90;;;;;;4139307;28;20476;-73
2023/07/18 01:23:40;;;;;;;2.23;1.07;;;14.70;99.90;;;;;;4139273;28;20600;-73
2023/07/18 01:25:42;;;;;;;1.80;1.10;;;14.60;99.90;;;;;;4142525;28;20745;-73
2023/07/18 01:27:43;;;;;;;2.30;1.17;;;14.50;99.90;;;;;;4136508;28;20610;-73
2023/07/18 01:29:46;;;;;;;2.70;1.30;;;14.50;99.90;;;;;;4139276;28;20229;-73
2023/07/18 01:31:48;;;;;;;1.93;1.20;;;14.50;99.90;;;;;;4138661;28;20228;-72
2023/07/18 01:33:50;;;;;;;2.30;1.23;;;14.40;99.90;;;;;;4138255;28;20222;-73
2023/07/18 01:35:52;;;;;;;2.90;1.30;;;14.40;99.90;;;;;;4135894;28;20229;-72
2023/07/18 01:37:57;;;;;;;1.80;1.20;;;14.40;99.90;;;;;;4133102;28;20210;-72
2023/07/18 01:39:59;;;;;;;2.23;1.20;;;14.30;99.90;;;;;;4131765;28;20617;-73
2023/07/18 01:42:01;;;;;;;3.67;1.30;;;14.30;99.90;;;;;;4134350;28;20671;-73
2023/07/18 01:44:02;;;;;;;2.20;1.10;;;14.30;99.90;;;;;;4133593;28;20682;-73
2023/07/18 01:46:04;;;;;;;1.67;0.93;;;14.30;99.90;;;;;;4131887;28;20219;-72
2023/07/18 01:48:06;;;;;;;2.80;1.33;;;14.20;99.90;;;;;;4133667;28;20222;-73
2023/07/18 01:50:09;;;;;;;3.90;1.37;;;14.20;99.90;;;;;;4140434;28;20329;-73
2023/07/18 01:52:12;;;;;;;2.63;1.53;;;14.10;99.90;;;;;;4138372;28;20225;-73
2023/07/18 01:54:15;;;;;;;1.37;1.10;;;14.10;99.90;;;;;;4136487;28;20316;-73
2023/07/18 01:56:17;;;;;;;1.70;1.30;;;14.10;99.90;;;;;;4138800;28;20820;-72
2023/07/18 01:58:19;;;;;;;2.80;1.40;;;14.10;99.90;;;;;;4140898;28;20211;-73
2023/07/18 02:00:21;;;;;;;4.23;1.50;;;14.00;99.90;;;;;;4137009;28;20243;-73
2023/07/18 02:02:23;;;;;;;2.10;1.30;;;14.00;99.90;;;;;;4138381;28;20210;-74
2023/07/18 02:04:24;;;;;;;2.93;1.27;;;14.00;99.90;;;;;;4140657;28;20696;-73
2023/07/18 02:06:26;;;;;;;3.03;1.37;;;14.00;99.90;;;;;;4141786;28;20208;-74
2023/07/18 02:08:28;;;;;;;3.43;1.10;;;14.00;99.90;;;;;;4140696;28;20746;-74
2023/07/18 02:10:31;;;;;;;1.97;1.10;;;13.90;99.90;;;;;;4138322;28;20243;-73
2023/07/18 02:12:32;;;;;;;2.23;1.30;;;13.90;99.90;;;;;;4138016;28;20221;-74
2023/07/18 02:14:34;;;;;;;2.07;1.17;;;13.90;99.90;;;;;;4142649;28;20237;-75
2023/07/18 02:16:35;;;;;;;2.00;1.13;;;13.90;99.90;;;;;;4137131;28;20300;-74
2023/07/18 02:18:37;;;;;;;3.17;1.60;;;13.90;99.90;;;;;;4136159;28;20289;-74
2023/07/18 02:20:40;;;;;;;3.30;1.47;;;13.80;99.90;;;;;;4138877;28;20234;-74
2023/07/18 02:22:43;;;;;;;2.60;1.60;;;13.80;99.90;;;;;;4134414;28;20296;-73
2023/07/18 02:24:44;;;;;;;5.27;1.53;;;13.80;99.90;;;;;;4139571;28;20437;-74
2023/07/18 02:26:47;;;;;;;2.20;1.27;;;13.80;99.90;;;;;;4134902;28;20690;-73
2023/07/18 02:28:50;;;;;;;4.10;1.43;;;13.80;99.90;;;;;;4136969;28;20219;-73
2023/07/18 02:30:52;;;;;;;2.37;1.37;;;13.80;99.90;;;;;;4135633;28;20235;-74
2023/07/18 02:32:54;;;;;;;2.20;1.57;;;13.80;99.90;;;;;;4135322;28;20286;-74
2023/07/18 02:34:55;;;;;;;1.60;1.20;;;13.70;99.90;;;;;;4136753;28;20691;-73
2023/07/18 02:36:57;;;;;;;2.07;1.50;;;13.70;99.90;;;;;;4139670;28;20208;-73
2023/07/18 02:39:00;;;;;;;2.97;1.20;;;13.70;99.90;;;;;;4140152;28;20717;-74
2023/07/18 02:41:01;;;;;;;2.30;1.17;;;13.60;99.90;;;;;;4136715;28;20240;-74
2023/07/18 02:43:05;;;;;;;2.63;1.43;;;13.70;99.90;;;;;;4137654;28;20241;-74
2023/07/18 02:45:08;;;;;;;5.53;1.53;;;13.60;99.90;;;;;;4139051;28;20307;-73
2023/07/18 02:47:10;;;;;;;4.23;1.80;;;13.60;99.90;;;;;;4140089;28;20296;-73
2023/07/18 02:49:12;;;;;;;4.30;1.37;;;13.60;99.90;;;;;;4141078;28;20215;-74
2023/07/18 02:51:14;;;;;;;4.43;1.70;;;13.60;99.90;;;;;;4137242;28;20240;-74
2023/07/18 02:53:16;;;;;;;2.17;1.40;;;13.60;99.90;;;;;;4140479;28;20223;-73
2023/07/18 02:55:17;;;;;;;2.90;1.60;;;13.60;99.90;;;;;;4137531;28;20247;-74
2023/07/18 02:57:18;;;;;;;2.70;1.50;;;13.60;99.90;;;;;;4135588;28;20212;-74
2023/07/18 02:59:21;;;;;;;3.07;1.53;;;13.60;99.90;;;;;;4138655;28;20312;-74
2023/07/18 03:01:24;;;;;;;3.03;1.30;;;13.60;99.90;;;;;;4140835;28;20208;-74
2023/07/18 03:03:26;;;;;;;2.43;1.50;;;13.60;99.90;;;;;;4138823;28;20220;-73
2023/07/18 03:05:29;;;;;;;3.37;1.77;;;13.60;99.90;;;;;;4134579;28;20239;-74
2023/07/18 03:07:30;;;;;;;4.20;1.70;;;13.60;99.90;;;;;;4137292;28;20635;-74
2023/07/18 03:09:34;;;;;;;2.60;1.50;;;13.60;99.90;;;;;;4136538;28;20233;-74
2023/07/18 03:11:36;;;;;;;4.23;1.50;;;13.60;99.90;;;;;;4139636;28;20220;-73
2023/07/18 03:13:38;;;;;;;3.83;1.90;;;13.60;99.90;;;;;;4135970;28;20237;-74
2023/07/18 03:15:42;;;;;;;2.43;1.50;;;13.60;99.90;;;;;;4138786;28;20216;-74
2023/07/18 03:17:44;;;;;;;3.60;1.60;;;13.60;99.90;;;;;;4139010;28;20236;-74
2023/07/18 03:19:46;;;;;;;3.57;2.00;;;13.60;99.90;;;;;;4134405;28;20232;-73
2023/07/18 03:21:48;;;;;;;3.23;1.63;;;13.60;99.90;;;;;;4137152;28;20242;-73
2023/07/18 03:23:49;;;;;;;4.03;1.70;;;13.50;99.90;;;;;;4137515;28;20301;-74
2023/07/18 03:25:51;;;;;;;4.00;2.13;;;13.50;99.90;;;;;;4140640;28;20213;-74
2023/07/18 03:27:52;;;;;;;7.47;1.50;;;13.50;99.90;;;;;;4138161;28;20311;-74
2023/07/18 03:29:54;;;;;;;2.30;1.50;;;13.50;99.90;;;;;;4139178;28;20713;-74
2023/07/18 03:31:59;;;;;;;2.73;1.70;;;13.50;99.90;;;;;;4138119;28;20229;-73
2023/07/18 03:34:01;;;;;;;3.20;1.80;;;13.50;99.90;;;;;;4138544;28;20246;-74
2023/07/18 03:36:04;;;;;;;4.07;1.77;;;13.40;99.90;;;;;;4138417;28;20685;-74
2023/07/18 03:38:06;;;;;;;4.63;2.60;;;13.40;99.90;;;;;;4137992;28;20208;-74
2023/07/18 03:40:10;;;;;;;4.90;1.83;;;13.50;99.90;;;;;;4138136;28;20237;-73
2023/07/18 03:42:11;;;;;;;3.70;1.77;;;13.50;99.90;;;;;;4137494;28;20209;-74
2023/07/18 03:44:13;;;;;;;3.37;1.90;;;13.50;99.90;;;;;;4139668;28;20307;-72
2023/07/18 03:46:15;;;;;;;3.10;1.83;;;13.50;99.90;;;;;;4137309;28;20209;-73
2023/07/18 03:48:18;;;;;;;3.33;2.00;;;13.50;99.90;;;;;;4139692;28;20656;-73
2023/07/18 03:50:20;;;;;;;3.20;1.90;;;13.50;99.90;;;;;;4141427;28;20323;-73
2023/07/18 03:52:22;;;;;;;5.23;1.77;;;13.60;99.90;;;;;;4135107;28;20219;-74
2023/07/18 03:54:24;;;;;;;4.80;2.10;;;13.60;99.90;;;;;;4136993;28;20217;-74
2023/07/18 03:56:30;;;;;;;5.67;2.00;;;13.60;99.90;;;;;;4139080;28;20307;-74
2023/07/18 03:58:32;;;;;;;3.57;2.20;;;13.70;99.90;;;;;;4137576;28;20273;-74
2023/07/18 04:00:34;;;;;;;4.37;2.20;;;13.70;99.90;;;;;;4139901;28;20348;-75
2023/07/18 04:02:37;;;;;;;5.60;2.07;;;13.70;99.90;;;;;;4134393;28;20213;-74
2023/07/18 04:04:41;;;;;;;4.53;2.10;;;13.70;99.90;;;;;;4138963;28;20322;-75
2023/07/18 04:06:43;;;;;;;3.63;2.00;;;13.70;99.90;;;;;;4133780;28;20208;-72
2023/07/18 04:08:45;;;;;;;3.87;2.20;;;13.70;99.90;;;;;;4143977;28;20551;-72
2023/07/18 04:10:47;;;;;;;3.40;2.03;;;13.70;99.90;;;;;;4139226;28;20805;-73
2023/07/18 04:12:49;;;;;;;3.77;1.87;;;13.80;99.90;;;;;;4136781;28;20305;-74
2023/07/18 04:14:51;;;;;;;2.90;1.73;;;13.80;99.90;;;;;;4138509;28;20230;-73
2023/07/18 04:16:53;;;;;;;3.97;2.03;;;13.80;99.90;;;;;;4138426;28;20304;-73
2023/07/18 04:18:55;;;;;;;3.77;2.10;;;13.80;99.90;;;;;;4137578;28;20218;-73
2023/07/18 04:21:02;;;;;;;6.00;2.50;;;13.90;99.90;;;;;;4139318;28;20244;-73
2023/07/18 04:23:03;;;;;;;4.07;2.30;;;13.80;99.90;;;;;;4143224;28;20239;-69
2023/07/18 04:25:06;;;;;;;3.87;2.00;;;13.90;99.90;;;;;;4138918;28;20222;-68
2023/07/18 04:27:08;;;;;;;6.30;2.03;;;13.90;99.90;;;;;;4142301;28;20222;-69
2023/07/18 04:29:10;;;;;;;3.23;1.90;;;13.90;99.90;;;;;;4134699;28;20680;-69
2023/07/18 04:31:13;;;;;;;2.57;1.90;;;13.90;99.90;;;;;;4139945;28;20271;-69
2023/07/18 04:33:15;;;;;;;5.27;2.13;;;13.90;99.90;;;;;;4134899;28;20229;-69
2023/07/18 04:35:17;;;;;;;4.77;2.07;;;13.90;99.90;;;;;;4143034;28;20204;-69
2023/07/18 04:37:21;;;;;;;5.57;2.50;;;13.90;99.90;;;;;;4138113;28;20244;-69
2023/07/18 04:39:22;;;;;;;9.60;4.67;;;13.90;99.90;;;;;;4136381;28;20222;-69
2023/07/18 04:41:24;;;;;;;7.70;4.23;;;13.90;99.90;;;;;;4134434;28;20207;-70
2023/07/18 04:43:26;;;;;;;7.17;3.50;;;13.90;99.90;;;;;;4137328;28;20212;-69
2023/07/18 04:45:28;;;;;;;8.47;2.80;;;14.00;99.90;;;;;;4139825;28;20243;-70
2023/07/18 04:47:30;;;;;;;5.83;2.73;;;14.00;99.90;;;;;;4138448;28;20209;-69
2023/07/18 04:49:32;;;;;;;3.53;2.20;;;14.00;99.90;;;;;;4136568;28;20369;-70
2023/07/18 04:51:33;;;;;;;5.73;2.40;;;14.00;99.90;;;;;;4140148;28;20240;-70
2023/07/18 04:53:37;;;;;;;4.70;2.13;;;14.00;99.90;;;;;;4136669;28;20260;-70
2023/07/18 04:55:39;;;;;;;3.90;2.30;;;14.00;99.90;;;;;;4138770;28;20292;-70
2023/07/18 04:57:41;;;;;;;7.53;2.73;;;14.00;99.90;;;;;;4137664;28;20296;-71
2023/07/18 04:59:43;;;;;;;5.97;2.73;;;14.00;99.90;;;;;;4140968;28;20738;-71
2023/07/18 05:01:45;;;;;;;4.47;2.57;;;14.00;99.90;;;;;;4138243;28;20221;-71
2023/07/18 05:03:46;;;;;;;5.67;2.17;;;14.00;99.90;;;;;;4138838;28;20801;-70
2023/07/18 05:05:48;;;;;;;6.27;2.10;;;14.10;99.90;;;;;;4138146;28;20223;-70
2023/07/18 05:07:50;;;;;;;4.37;2.20;;;14.00;99.90;;;;;;4139710;28;20224;-71
2023/07/18 05:09:53;;;;;;;4.43;2.10;;;14.10;99.90;;;;;;4139081;28;20233;-71
2023/07/18 05:11:55;;;;;;;5.23;2.50;;;14.10;99.90;;;;;;4140550;28;20697;-71
2023/07/18 05:13:56;;;;;;;5.73;2.20;;;14.10;99.90;;;;;;4137781;28;20924;-70
2023/07/18 05:16:00;;;;;;;3.43;2.17;;;14.10;99.90;;;;;;4141838;28;20232;-70
2023/07/18 05:18:02;;;;;;;5.47;2.20;;;14.10;99.90;;;;;;4140066;28;20686;-71
2023/07/18 05:20:05;;;;;;;5.63;2.37;;;14.20;99.90;;;;;;4141434;28;20789;-70
2023/07/18 05:22:07;;;;;;;5.90;2.37;;;14.20;99.90;;;;;;4137094;28;20219;-71
2023/07/18 05:24:10;;;;;;;4.43;2.37;;;14.20;99.90;;;;;;4137952;28;20283;-71
2023/07/18 05:26:13;;;;;;;4.30;2.27;;;14.30;99.90;;;;;;4138619;28;20215;-71
2023/07/18 05:28:15;;;;;;;6.83;2.50;;;14.30;99.90;;;;;;4138572;28;20218;-71
2023/07/18 05:30:18;;;;;;;4.73;2.33;;;14.30;99.90;;;;;;4139895;28;20241;-71
2023/07/18 05:32:20;;;;;;;10.43;2.70;;;14.30;99.90;;;;;;4137365;28;20604;-70
2023/07/18 05:34:22;;;;;;;6.40;2.43;;;14.40;99.90;;;;;;4138081;28;20206;-70
2023/07/18 05:36:25;;;;;;;6.47;2.80;;;14.40;99.90;;;;;;4130010;28;20253;-69
2023/07/18 05:38:27;;;;;;;5.93;2.37;;;14.40;99.90;;;;;;4137699;28;20839;-69
2023/07/18 05:40:29;;;;;;;7.77;2.70;;;14.50;99.90;;;;;;4141691;28;20315;-70
2023/07/18 05:42:33;;;;;;;6.17;2.30;;;14.50;99.90;;;;;;4141049;28;20593;-69
2023/07/18 05:44:35;;;;;;;4.80;2.67;;;14.60;99.90;;;;;;4138483;28;20280;-69
2023/07/18 05:46:36;;;;;;;5.70;2.43;;;14.60;99.90;;;;;;4142084;28;20217;-69
2023/07/18 05:48:37;;;;;;;5.30;2.40;;;14.60;99.90;;;;;;4141359;28;20232;-69
2023/07/18 05:50:39;;;;;;;5.17;2.27;;;14.60;99.90;;;;;;4140644;28;20321;-69
2023/07/18 05:52:41;;;;;;;6.70;2.43;;;14.60;99.90;;;;;;4139186;28;20307;-72
2023/07/18 05:54:45;;;;;;;9.03;2.60;;;14.70;99.90;;;;;;4139841;28;20324;-69
2023/07/18 05:56:47;;;;;;;5.27;2.27;;;14.80;99.90;;;;;;4139330;28;20206;-70
2023/07/18 05:58:50;;;;;;;5.03;2.40;;;14.80;99.90;;;;;;4138506;28;20580;-70
2023/07/18 06:00:52;;;;;;;7.43;2.30;;;14.80;99.90;;;;;;4139209;28;20247;-70
2023/07/18 06:02:54;;;;;;;4.67;2.70;;;14.90;99.90;;;;;;4139795;28;20315;-69
2023/07/18 06:04:56;;;;;;;5.80;2.53;;;14.90;99.90;;;;;;4137574;28;20747;-72
2023/07/18 06:06:57;;;;;;;3.90;2.23;;;15.00;99.90;;;;;;4136850;28;20688;-70
2023/07/18 06:08:59;;;;;;;4.90;2.20;;;15.10;99.90;;;;;;4139132;28;20226;-70
2023/07/18 06:11:00;;;;;;;7.03;2.30;;;15.10;99.90;;;;;;4137298;28;20238;-71
2023/07/18 06:13:02;;;;;;;4.37;2.17;;;15.20;99.90;;;;;;4138620;28;20223;-71
2023/07/18 06:15:07;;;;;;;6.20;2.50;;;15.30;99.90;;;;;;4138256;28;20220;-71
2023/07/18 06:17:09;;;;;;;4.50;1.97;;;15.30;99.90;;;;;;4137298;28;20218;-71
2023/07/18 06:19:12;;;;;;;5.20;2.50;;;15.40;99.90;;;;;;4138967;28;20204;-71
2023/07/18 06:21:15;;;;;;;4.33;2.20;;;15.40;99.90;;;;;;4140228;28;20212;-71
2023/07/18 06:23:17;;;;;;;3.30;2.20;;;15.50;99.90;;;;;;4136003;28;20262;-71
2023/07/18 06:25:18;;;;;;;5.03;2.53;;;15.50;99.90;;;;;;4139860;28;20219;-71
2023/07/18 06:27:20;;;;;;;3.83;2.33;;;15.50;99.90;;;;;;4140775;28;20196;-71
2023/07/18 06:29:22;;;;;;;4.57;2.40;;;15.60;99.90;;;;;;4136811;28;20223;-71
2023/07/18 06:31:25;;;;;;;3.73;2.00;;;15.70;99.90;;;;;;4140649;28;20216;-71
2023/07/18 06:33:27;;;;;;;4.53;2.40;;;15.70;99.90;;;;;;4135587;28;20235;-71
2023/07/18 06:35:29;;;;;;;3.77;2.17;;;15.80;99.90;;;;;;4139597;28;20236;-71
2023/07/18 06:37:31;;;;;;;5.20;2.17;;;15.90;99.90;;;;;;4137906;28;20200;-71
2023/07/18 06:39:33;;;;;;;5.77;2.43;;;15.90;99.90;;;;;;4135865;28;20223;-70
2023/07/18 06:41:34;;;;;;;5.23;2.63;;;16.00;99.90;;;;;;4137573;28;20225;-71
2023/07/18 06:43:35;;;;;;;7.57;2.47;;;16.10;99.90;;;;;;4140797;28;20295;-70
2023/07/18 06:45:37;;;;;;;5.00;2.10;;;16.20;99.90;;;;;;4138453;28;20219;-71
2023/07/18 06:47:41;;;;;;;3.97;2.37;;;16.30;99.90;;;;;;4140293;28;20571;-71
2023/07/18 06:49:42;;;;;;;4.53;2.37;;;16.30;99.90;;;;;;4140123;28;20239;-71
2023/07/18 06:51:44;;;;;;;4.33;2.30;;;16.30;99.90;;;;;;4133951;28;20767;-70
2023/07/18 06:53:46;;;;;;;4.77;2.30;;;16.40;99.90;;;;;;4137675;28;20308;-70
2023/07/18 06:55:49;;;;;;;5.10;2.30;;;16.40;99.90;;;;;;4139552;28;20222;-71
2023/07/18 06:57:50;;;;;;;7.83;2.53;;;16.40;99.90;;;;;;4137161;28;20219;-71
2023/07/18 06:59:53;;;;;;;7.77;2.63;;;16.50;99.90;;;;;;4136945;28;20682;-71
2023/07/18 07:01:55;;;;;;;4.97;2.23;;;16.50;99.90;;;;;;4140984;28;20215;-71
2023/07/18 07:03:58;;;;;;;5.83;2.50;;;16.60;99.90;;;;;;4139464;28;20654;-71
2023/07/18 07:06:00;;;;;;;4.17;2.20;;;16.60;99.90;;;;;;4138653;28;20205;-71
2023/07/18 07:08:02;;;;;;;6.93;2.60;;;16.70;99.90;;;;;;4140769;28;20208;-71
2023/07/18 07:10:04;;;;;;;10.00;2.70;;;16.70;99.90;;;;;;4137080;28;20220;-70
2023/07/18 07:12:07;;;;;;;4.43;2.20;;;16.70;99.90;;;;;;4138206;28;20243;-72
2023/07/18 07:14:11;;;;;;;5.87;2.60;;;16.70;99.90;;;;;;4137525;28;20236;-72
2023/07/18 07:16:13;;;;;;;6.47;2.20;;;16.80;99.90;;;;;;4138142;28;20648;-71
2023/07/18 07:18:14;;;;;;;8.43;2.40;;;16.80;99.90;;;;;;4137665;28;20303;-71
2023/07/18 07:20:19;;;;;;;6.53;2.60;;;16.80;99.90;;;;;;4137964;28;20224;-71
2023/07/18 07:22:21;;;;;;;8.23;2.80;;;16.90;99.90;;;;;;4135800;28;20290;-71
2023/07/18 07:24:23;;;;;;;6.23;2.30;;;16.90;99.90;;;;;;4136892;28;20211;-71
2023/07/18 07:26:24;;;;;;;5.23;2.50;;;17.00;99.90;;;;;;4139443;28;20213;-71
2023/07/18 07:28:25;;;;;;;4.80;2.50;;;17.00;99.90;;;;;;4137556;28;20710;-72
2023/07/18 07:30:26;;;;;;;5.60;2.67;;;17.10;99.90;;;;;;4141556;28;20225;-71
2023/07/18 07:32:28;;;;;;;5.43;2.50;;;17.10;99.90;;;;;;4138176;28;20208;-71
2023/07/18 07:34:30;;;;;;;6.00;2.40;;;17.20;99.90;;;;;;4139248;28;20235;-71
2023/07/18 07:36:34;;;;;;;5.90;2.50;;;17.20;99.90;;;;;;4135723;28;20208;-71
2023/07/18 07:38:36;;;;;;;6.03;2.20;;;17.30;99.90;;;;;;4139241;28;20260;-71
2023/07/18 07:40:37;;;;;;;6.40;2.50;;;17.30;99.90;;;;;;4138673;28;20605;-71
2023/07/18 07:42:39;;;;;;;5.90;2.23;;;17.40;99.90;;;;;;4135332;28;20201;-71
2023/07/18 07:44:41;;;;;;;5.40;2.30;;;17.50;99.90;;;;;;4137304;28;20217;-72
2023/07/18 07:46:43;;;;;;;7.37;2.50;;;17.50;99.90;;;;;;4138744;28;20303;-71
2023/07/18 07:48:45;;;;;;;5.77;2.20;;;17.60;99.90;;;;;;4139968;28;20247;-72
2023/07/18 07:50:48;;;;;;;6.17;2.17;;;17.60;99.90;;;;;;4136751;28;20329;-72
2023/07/18 07:52:51;;;;;;;4.73;2.40;;;17.70;99.90;;;;;;4136054;28;20667;-72
2023/07/18 07:54:53;;;;;;;5.03;2.20;;;17.80;99.90;;;;;;4133454;28;20325;-72
2023/07/18 07:56:55;;;;;;;6.23;2.30;;;17.80;99.90;;;;;;4140790;28;20228;-72
2023/07/18 07:58:56;;;;;;;3.83;1.97;;;17.90;99.90;;;;;;4136846;28;20242;-72
2023/07/18 08:00:59;;;;;;;4.90;2.30;;;18.00;99.90;;;;;;4139413;28;20722;-71
2023/07/18 08:03:00;;;;;;;6.73;2.50;;;18.00;99.90;;;;;;4138015;28;20221;-72
2023/07/18 08:05:03;;;;;;;4.57;2.10;;;18.10;99.90;;;;;;4137016;28;20215;-72
2023/07/18 08:07:05;;;;;;;6.67;2.13;;;18.10;99.90;;;;;;4136732;28;20658;-72
2023/07/18 08:09:09;;;;;;;5.87;2.27;;;18.10;99.90;;;;;;4138246;28;20692;-72
2023/07/18 08:11:11;;;;;;;5.73;2.47;;;18.20;99.90;;;;;;4138380;28;20218;-72
2023/07/18 08:13:14;;;;;;;6.00;2.17;;;18.20;99.90;;;;;;4137851;28;20213;-72
2023/07/18 08:15:16;;;;;;;7.77;2.20;;;18.30;99.90;;;;;;4139209;28;20354;-72
2023/07/18 08:17:18;;;;;;;4.97;1.90;;;18.40;99.90;;;;;;4144916;28;20672;-75
2023/07/18 08:19:21;;;;;;;5.77;2.20;;;18.40;99.90;;;;;;4144104;28;20241;-73
2023/07/18 08:21:23;;;;;;;5.43;2.17;;;18.50;99.90;;;;;;4144614;28;20234;-74
2023/07/18 08:23:25;;;;;;;6.00;2.10;;;18.60;99.90;;;;;;4144041;28;20226;-72
2023/07/18 08:25:28;;;;;;;4.87;2.10;;;18.60;99.90;;;;;;4139607;28;20306;-74
2023/07/18 08:27:30;;;;;;;5.83;1.90;;;18.60;99.90;;;;;;4138163;28;20715;-73
2023/07/18 08:29:33;;;;;;;3.40;2.00;;;18.70;99.90;;;;;;4140516;28;20239;-73
2023/07/18 08:31:37;;;;;;;5.50;1.63;;;18.70;99.90;;;;;;4141776;28;20651;-73
2023/07/18 08:33:39;;;;;;;3.27;2.20;;;18.70;99.90;;;;;;4142967;28;20246;-73
2023/07/18 08:35:41;;;;;;;5.47;1.90;;;18.80;99.90;;;;;;4142802;28;20735;-73
2023/07/18 08:37:42;;;;;;;4.37;2.10;;;18.90;99.90;;;;;;4143308;28;20661;-72
2023/07/18 08:39:45;;;;;;;4.53;2.00;;;19.00;99.90;;;;;;4139516;28;20775;-74
2023/07/18 08:41:49;;;;;;;4.73;1.80;;;19.00;99.90;;;;;;4141509;28;20277;-75
2023/07/18 08:43:50;;;;;;;3.53;2.00;;;19.10;99.90;;;;;;4139798;28;20218;-74
2023/07/18 08:45:53;;;;;;;3.83;1.83;;;19.20;99.90;;;;;;4137996;28;20219;-74
2023/07/18 08:47:56;;;;;;;3.77;1.70;;;19.20;99.90;;;;;;4141240;28;20326;-74
2023/07/18 08:49:58;;;;;;;3.10;1.63;;;19.30;99.90;;;;;;4138652;28;20235;-72
2023/07/18 08:52:01;;;;;;;7.37;2.13;;;19.30;99.90;;;;;;4145083;28;20215;-70
2023/07/18 08:54:03;;;;;;;3.60;1.50;;;19.30;99.90;;;;;;4143493;28;20867;-70
2023/07/18 08:56:08;;;;;;;4.47;1.67;;;19.40;99.90;;;;;;4143083;28;20254;-73
2023/07/18 08:58:11;;;;;;;2.90;1.47;;;19.40;99.90;;;;;;4138903;28;20223;-73
2023/07/18 09:00:14;;;;;;;3.80;1.70;;;19.50;99.90;;;;;;4140656;28;20238;-73
2023/07/18 09:02:16;;;;;;;3.27;1.53;;;19.50;99.90;;;;;;4138467;28;20262;-75
2023/07/18 09:04:18;;;;;;;4.83;1.53;;;19.50;99.90;;;;;;4137322;28;20299;-73
2023/07/18 09:06:21;;;;;;;3.30;1.93;;;19.60;99.90;;;;;;4142669;28;20219;-74
2023/07/18 09:08:23;;;;;;;6.37;2.00;;;19.60;99.90;;;;;;4139323;28;20212;-73
2023/07/18 09:10:26;;;;;;;4.73;1.93;;;19.70;99.90;;;;;;4138184;28;20354;-73
2023/07/18 09:12:28;;;;;;;5.27;1.67;;;19.80;99.90;;;;;;4140436;28;20207;-74
2023/07/18 09:14:33;;;;;;;4.67;1.50;;;19.80;99.90;;;;;;4142555;28;21124;-73
2023/07/18 09:16:35;;;;;;;3.87;1.80;;;19.90;99.90;;;;;;4141013;28;20303;-73
2023/07/18 09:18:38;;;;;;;2.67;1.60;;;20.00;99.90;;;;;;4143904;28;20213;-71
2023/07/18 09:20:40;;;;;;;2.97;1.50;;;20.10;99.90;;;;;;4140139;28;20235;-73
2023/07/18 09:22:43;;;;;;;3.40;1.40;;;20.10;99.90;;;;;;4138498;28;20302;-71
2023/07/18 09:24:45;;;;;;;2.83;1.50;;;20.10;99.90;;;;;;4140637;28;20227;-74
2023/07/18 09:26:48;;;;;;;3.27;1.40;;;20.20;99.40;;;;;;4139184;28;20212;-73
2023/07/18 09:28:51;;;;;;;2.17;1.30;;;20.20;99.70;;;;;;4138692;28;20223;-72
2023/07/18 09:30:55;;;;;;;4.40;1.60;;;20.30;98.10;;;;;;4139755;28;20230;-73
2023/07/18 09:32:57;;;;;;;3.13;1.60;;;20.40;96.80;;;;;;4141405;28;20623;-73
2023/07/18 09:35:00;;;;;;;3.10;1.33;;;20.40;96.70;;;;;;4140479;28;20235;-73
2023/07/18 09:37:05;;;;;;;3.60;1.50;;;20.40;98.50;;;;;;4140994;28;20303;-73
2023/07/18 09:39:09;;;;;;;2.50;1.33;;;20.50;96.70;;;;;;4139643;28;20208;-74
2023/07/18 09:41:11;;;;;;;3.47;1.60;;;20.50;97.40;;;;;;4141461;28;20208;-75
2023/07/18 09:43:14;;;;;;;2.33;1.53;;;20.70;94.80;;;;;;4136755;28;20639;-74
2023/07/18 09:45:17;;;;;;;3.33;1.70;;;20.80;87.80;;;;;;4143236;28;20907;-73
2023/07/18 09:47:20;;;;;;;5.43;1.67;;;20.90;82.50;;;;;;4136931;28;20205;-74
2023/07/18 09:49:22;;;;;;;8.17;4.00;;;21.10;78.90;;;;;;4141875;28;20207;-75
2023/07/18 09:51:30;;;;;;;8.40;4.20;;;21.00;75.70;;;;;;4139320;28;20266;-74
2023/07/18 09:53:32;;;;;;;8.77;3.40;;;21.00;77.60;;;;;;4137156;28;20303;-72
2023/07/18 09:55:34;;;;;;;3.87;1.80;;;21.10;80.60;;;;;;4138316;28;20686;-75
2023/07/18 09:57:40;;;;;;;3.23;1.30;;;21.20;82.70;;;;;;4141011;28;20207;-76
2023/07/18 09:59:42;;;;;;;3.30;1.70;;;21.30;84.20;;;;;;4138198;28;20235;-75
2023/07/18 10:01:45;;;;;;;2.70;1.40;;;21.40;84.10;;;;;;4140939;28;20578;-75
2023/07/18 10:03:49;;;;;;;3.57;1.40;;;21.50;83.00;;;;;;4138819;28;20204;-74
2023/07/18 10:05:51;;;;;;;4.33;1.57;;;21.60;82.40;;;;;;4137717;28;20216;-75
2023/07/18 10:07:54;;;;;;;3.47;1.40;;;21.70;80.30;;;;;;4136685;28;20223;-76
2023/07/18 10:09:56;;;;;;;2.83;1.30;;;21.70;78.80;;;;;;4140520;28;20777;-74
2023/07/18 10:12:11;;;;;;;2.90;1.60;;;21.80;75.90;;;;;;4141576;28;20654;-75
2023/07/18 10:14:13;;;;;;;3.40;1.30;;;21.80;76.20;;;;;;4137929;28;20217;-74
2023/07/18 10:16:17;;;;;;;4.27;1.87;;;21.80;76.80;;;;;;4141520;28;20213;-72
2023/07/18 10:18:22;;;;;;;3.20;1.60;;;21.90;78.70;;;;;;4137263;28;20223;-74
2023/07/18 10:20:33;;;;;;;5.00;1.70;;;21.90;74.10;;;;;;4135723;28;20316;-73
2023/07/18 10:22:34;;;;;;;3.63;1.40;;;21.90;73.70;;;;;;4136770;28;20208;-72
2023/07/18 10:24:36;;;;;;;3.93;1.53;;;22.00;72.90;;;;;;4138111;28;20572;-72
2023/07/18 10:26:39;;;;;;;2.90;1.13;;;22.00;70.70;;;;;;4138599;28;20252;-73
2023/07/18 10:28:46;;;;;;;5.43;1.60;;;22.10;69.00;;;;;;4141896;28;20632;-73
2023/07/18 10:30:48;;;;;;;2.10;1.20;;;22.20;65.20;;;;;;4136684;28;20961;-74
2023/07/18 10:32:54;;;;;;;5.87;1.40;;;22.20;62.30;;;;;;4137694;28;20303;-74
2023/07/18 10:34:55;;;;;;;3.10;1.33;;;22.30;62.00;;;;;;4142600;28;20231;-74
2023/07/18 10:37:00;;;;;;;3.30;1.43;;;22.40;59.40;;;;;;4139526;28;20304;-74